sensor_id;sensor_type;location;lat;lon;timestamp;P1;durP1;ratioP1;P2;durP2;ratioP2
76765;SDS011;65707;52.362;6.588;2023-06-26T00:01:27;13.43;;;8.02;;
76765;SDS011;65707;52.362;6.588;2023-06-26T00:03:56;12.20;;;7.78;;
76765;SDS011;65707;52.362;6.588;2023-06-26T00:06:23;12.02;;;7.95;;
76765;SDS011;65707;52.362;6.588;2023-06-26T00:08:52;11.00;;;7.40;;
76765;SDS011;65707;52.362;6.588;2023-06-26T00:11:22;11.70;;;8.40;;
76765;SDS011;65707;52.362;6.588;2023-06-26T00:13:49;12.32;;;8.48;;
76765;SDS011;65707;52.362;6.588;2023-06-26T00:16:16;11.98;;;8.00;;
76765;SDS011;65707;52.362;6.588;2023-06-26T00:18:42;12.90;;;7.95;;
76765;SDS011;65707;52.362;6.588;2023-06-26T00:21:09;13.65;;;7.50;;
76765;SDS011;65707;52.362;6.588;2023-06-26T00:23:36;14.13;;;8.02;;
76765;SDS011;65707;52.362;6.588;2023-06-26T00:26:04;13.15;;;7.45;;
76765;SDS011;65707;52.362;6.588;2023-06-26T00:28:31;14.10;;;8.15;;
76765;SDS011;65707;52.362;6.588;2023-06-26T00:30:57;13.35;;;8.48;;
76765;SDS011;65707;52.362;6.588;2023-06-26T00:33:24;12.65;;;8.30;;
76765;SDS011;65707;52.362;6.588;2023-06-26T00:35:51;13.30;;;8.30;;
76765;SDS011;65707;52.362;6.588;2023-06-26T00:38:17;14.98;;;8.02;;
76765;SDS011;65707;52.362;6.588;2023-06-26T00:40:44;15.30;;;8.30;;
76765;SDS011;65707;52.362;6.588;2023-06-26T00:43:12;12.70;;;8.30;;
76765;SDS011;65707;52.362;6.588;2023-06-26T00:45:39;11.75;;;8.10;;
76765;SDS011;65707;52.362;6.588;2023-06-26T00:48:06;12.55;;;8.32;;
76765;SDS011;65707;52.362;6.588;2023-06-26T00:50:33;14.13;;;8.70;;
76765;SDS011;65707;52.362;6.588;2023-06-26T00:53:00;14.25;;;8.75;;
76765;SDS011;65707;52.362;6.588;2023-06-26T00:55:26;13.32;;;8.48;;
76765;SDS011;65707;52.362;6.588;2023-06-26T00:57:53;12.93;;;8.13;;
76765;SDS011;65707;52.362;6.588;2023-06-26T01:00:22;14.70;;;8.75;;
76765;SDS011;65707;52.362;6.588;2023-06-26T01:02:50;14.98;;;9.30;;
76765;SDS011;65707;52.362;6.588;2023-06-26T01:05:16;13.10;;;8.70;;
76765;SDS011;65707;52.362;6.588;2023-06-26T01:07:46;12.55;;;8.38;;
76765;SDS011;65707;52.362;6.588;2023-06-26T01:10:14;13.40;;;8.60;;
76765;SDS011;65707;52.362;6.588;2023-06-26T01:12:41;13.10;;;8.60;;
76765;SDS011;65707;52.362;6.588;2023-06-26T01:15:09;14.77;;;9.40;;
76765;SDS011;65707;52.362;6.588;2023-06-26T01:17:38;14.63;;;8.77;;
76765;SDS011;65707;52.362;6.588;2023-06-26T01:20:10;14.15;;;9.43;;
76765;SDS011;65707;52.362;6.588;2023-06-26T01:22:41;15.13;;;9.45;;
76765;SDS011;65707;52.362;6.588;2023-06-26T01:25:20;14.57;;;9.38;;
76765;SDS011;65707;52.362;6.588;2023-06-26T01:28:05;14.18;;;9.25;;
76765;SDS011;65707;52.362;6.588;2023-06-26T01:30:33;14.52;;;10.10;;
76765;SDS011;65707;52.362;6.588;2023-06-26T01:33:04;15.75;;;9.90;;
76765;SDS011;65707;52.362;6.588;2023-06-26T01:35:31;14.82;;;9.95;;
76765;SDS011;65707;52.362;6.588;2023-06-26T01:38:11;16.50;;;10.02;;
76765;SDS011;65707;52.362;6.588;2023-06-26T01:40:39;15.35;;;9.85;;
76765;SDS011;65707;52.362;6.588;2023-06-26T01:43:09;15.90;;;9.85;;
76765;SDS011;65707;52.362;6.588;2023-06-26T01:45:45;13.38;;;9.48;;
76765;SDS011;65707;52.362;6.588;2023-06-26T01:48:16;15.40;;;10.15;;
76765;SDS011;65707;52.362;6.588;2023-06-26T01:50:52;16.55;;;10.15;;
76765;SDS011;65707;52.362;6.588;2023-06-26T01:53:24;15.25;;;10.38;;
76765;SDS011;65707;52.362;6.588;2023-06-26T01:56:03;17.85;;;10.95;;
76765;SDS011;65707;52.362;6.588;2023-06-26T01:58:36;16.50;;;11.27;;
76765;SDS011;65707;52.362;6.588;2023-06-26T02:01:09;16.27;;;10.52;;
76765;SDS011;65707;52.362;6.588;2023-06-26T02:03:38;17.75;;;10.80;;
76765;SDS011;65707;52.362;6.588;2023-06-26T02:06:05;17.75;;;11.05;;
76765;SDS011;65707;52.362;6.588;2023-06-26T02:08:32;14.32;;;10.50;;
76765;SDS011;65707;52.362;6.588;2023-06-26T02:10:59;16.80;;;10.85;;
76765;SDS011;65707;52.362;6.588;2023-06-26T02:13:25;16.42;;;11.23;;
76765;SDS011;65707;52.362;6.588;2023-06-26T02:15:54;17.30;;;11.85;;
76765;SDS011;65707;52.362;6.588;2023-06-26T02:18:20;17.23;;;11.50;;
76765;SDS011;65707;52.362;6.588;2023-06-26T02:20:47;16.42;;;11.85;;
76765;SDS011;65707;52.362;6.588;2023-06-26T02:23:14;15.73;;;10.98;;
76765;SDS011;65707;52.362;6.588;2023-06-26T02:25:41;20.48;;;11.27;;
76765;SDS011;65707;52.362;6.588;2023-06-26T02:28:07;14.88;;;11.48;;
76765;SDS011;65707;52.362;6.588;2023-06-26T02:30:34;20.17;;;11.98;;
76765;SDS011;65707;52.362;6.588;2023-06-26T02:33:02;17.60;;;12.82;;
76765;SDS011;65707;52.362;6.588;2023-06-26T02:35:29;18.33;;;12.38;;
76765;SDS011;65707;52.362;6.588;2023-06-26T02:37:58;18.38;;;12.13;;
76765;SDS011;65707;52.362;6.588;2023-06-26T02:40:24;17.38;;;11.75;;
76765;SDS011;65707;52.362;6.588;2023-06-26T02:42:51;19.58;;;11.73;;
76765;SDS011;65707;52.362;6.588;2023-06-26T02:45:18;18.63;;;11.85;;
76765;SDS011;65707;52.362;6.588;2023-06-26T02:47:45;16.08;;;11.65;;
76765;SDS011;65707;52.362;6.588;2023-06-26T02:50:13;16.08;;;11.07;;
76765;SDS011;65707;52.362;6.588;2023-06-26T02:52:40;20.73;;;12.30;;
76765;SDS011;65707;52.362;6.588;2023-06-26T02:55:06;16.17;;;10.88;;
76765;SDS011;65707;52.362;6.588;2023-06-26T02:57:35;15.75;;;11.07;;
76765;SDS011;65707;52.362;6.588;2023-06-26T03:00:02;17.45;;;11.75;;
76765;SDS011;65707;52.362;6.588;2023-06-26T03:02:31;15.73;;;10.95;;
76765;SDS011;65707;52.362;6.588;2023-06-26T03:04:58;16.73;;;11.25;;
76765;SDS011;65707;52.362;6.588;2023-06-26T03:07:26;16.90;;;12.05;;
76765;SDS011;65707;52.362;6.588;2023-06-26T03:09:53;16.70;;;11.32;;
76765;SDS011;65707;52.362;6.588;2023-06-26T03:12:20;16.92;;;11.10;;
76765;SDS011;65707;52.362;6.588;2023-06-26T03:14:46;17.02;;;11.52;;
76765;SDS011;65707;52.362;6.588;2023-06-26T03:17:13;16.73;;;11.80;;
76765;SDS011;65707;52.362;6.588;2023-06-26T03:19:40;16.40;;;11.52;;
76765;SDS011;65707;52.362;6.588;2023-06-26T03:22:07;17.75;;;11.88;;
76765;SDS011;65707;52.362;6.588;2023-06-26T03:24:35;19.27;;;11.85;;
76765;SDS011;65707;52.362;6.588;2023-06-26T03:27:02;18.13;;;12.73;;
76765;SDS011;65707;52.362;6.588;2023-06-26T03:29:29;17.65;;;11.93;;
76765;SDS011;65707;52.362;6.588;2023-06-26T03:31:56;18.45;;;12.85;;
76765;SDS011;65707;52.362;6.588;2023-06-26T03:34:23;17.90;;;12.00;;
76765;SDS011;65707;52.362;6.588;2023-06-26T03:36:49;17.90;;;12.05;;
76765;SDS011;65707;52.362;6.588;2023-06-26T03:39:16;16.13;;;11.40;;
76765;SDS011;65707;52.362;6.588;2023-06-26T03:41:44;17.77;;;11.07;;
76765;SDS011;65707;52.362;6.588;2023-06-26T03:44:13;19.23;;;11.35;;
76765;SDS011;65707;52.362;6.588;2023-06-26T03:46:40;15.80;;;10.77;;
76765;SDS011;65707;52.362;6.588;2023-06-26T03:49:07;16.52;;;10.27;;
76765;SDS011;65707;52.362;6.588;2023-06-26T03:51:35;16.48;;;10.25;;
76765;SDS011;65707;52.362;6.588;2023-06-26T03:54:02;15.82;;;10.23;;
76765;SDS011;65707;52.362;6.588;2023-06-26T03:56:29;18.15;;;10.35;;
76765;SDS011;65707;52.362;6.588;2023-06-26T03:58:57;16.05;;;9.75;;
76765;SDS011;65707;52.362;6.588;2023-06-26T04:01:25;15.73;;;9.50;;
76765;SDS011;65707;52.362;6.588;2023-06-26T04:03:52;15.93;;;9.10;;
76765;SDS011;65707;52.362;6.588;2023-06-26T04:06:19;15.95;;;8.38;;
76765;SDS011;65707;52.362;6.588;2023-06-26T04:08:46;16.50;;;8.27;;
76765;SDS011;65707;52.362;6.588;2023-06-26T04:11:12;13.15;;;8.05;;
76765;SDS011;65707;52.362;6.588;2023-06-26T04:13:39;18.65;;;9.20;;
76765;SDS011;65707;52.362;6.588;2023-06-26T04:16:07;14.25;;;8.85;;
76765;SDS011;65707;52.362;6.588;2023-06-26T04:18:36;14.35;;;8.23;;
76765;SDS011;65707;52.362;6.588;2023-06-26T04:21:04;13.88;;;9.07;;
76765;SDS011;65707;52.362;6.588;2023-06-26T04:23:34;14.57;;;9.70;;
76765;SDS011;65707;52.362;6.588;2023-06-26T04:26:01;14.57;;;9.52;;
76765;SDS011;65707;52.362;6.588;2023-06-26T04:28:29;17.92;;;10.65;;
76765;SDS011;65707;52.362;6.588;2023-06-26T04:30:57;17.13;;;9.93;;
76765;SDS011;65707;52.362;6.588;2023-06-26T04:33:25;15.75;;;10.02;;
76765;SDS011;65707;52.362;6.588;2023-06-26T04:35:53;16.80;;;10.18;;
76765;SDS011;65707;52.362;6.588;2023-06-26T04:38:20;15.60;;;9.40;;
76765;SDS011;65707;52.362;6.588;2023-06-26T04:40:47;14.82;;;8.57;;
76765;SDS011;65707;52.362;6.588;2023-06-26T04:43:14;13.35;;;8.68;;
76765;SDS011;65707;52.362;6.588;2023-06-26T04:45:44;16.10;;;9.40;;
76765;SDS011;65707;52.362;6.588;2023-06-26T04:48:11;16.50;;;8.05;;
76765;SDS011;65707;52.362;6.588;2023-06-26T04:50:44;13.52;;;8.00;;
76765;SDS011;65707;52.362;6.588;2023-06-26T04:53:19;11.90;;;6.43;;
76765;SDS011;65707;52.362;6.588;2023-06-26T04:55:49;14.13;;;6.90;;
76765;SDS011;65707;52.362;6.588;2023-06-26T04:58:18;13.07;;;6.60;;
76765;SDS011;65707;52.362;6.588;2023-06-26T05:00:46;13.60;;;6.43;;
76765;SDS011;65707;52.362;6.588;2023-06-26T05:03:13;12.20;;;6.03;;
76765;SDS011;65707;52.362;6.588;2023-06-26T05:05:44;17.60;;;6.05;;
76765;SDS011;65707;52.362;6.588;2023-06-26T05:08:13;13.10;;;5.82;;
76765;SDS011;65707;52.362;6.588;2023-06-26T05:10:44;12.68;;;5.63;;
76765;SDS011;65707;52.362;6.588;2023-06-26T05:13:14;15.27;;;6.03;;
76765;SDS011;65707;52.362;6.588;2023-06-26T05:15:42;13.40;;;5.70;;
76765;SDS011;65707;52.362;6.588;2023-06-26T05:18:09;15.18;;;5.70;;
76765;SDS011;65707;52.362;6.588;2023-06-26T05:20:39;13.90;;;6.15;;
76765;SDS011;65707;52.362;6.588;2023-06-26T05:23:08;14.65;;;5.43;;
76765;SDS011;65707;52.362;6.588;2023-06-26T05:25:38;13.02;;;5.40;;
76765;SDS011;65707;52.362;6.588;2023-06-26T05:28:06;11.88;;;5.13;;
76765;SDS011;65707;52.362;6.588;2023-06-26T05:30:35;10.65;;;4.90;;
76765;SDS011;65707;52.362;6.588;2023-06-26T05:33:03;14.38;;;5.40;;
76765;SDS011;65707;52.362;6.588;2023-06-26T05:35:31;10.95;;;4.72;;
76765;SDS011;65707;52.362;6.588;2023-06-26T05:38:02;15.40;;;5.55;;
76765;SDS011;65707;52.362;6.588;2023-06-26T05:40:31;14.02;;;5.13;;
76765;SDS011;65707;52.362;6.588;2023-06-26T05:43:00;14.60;;;4.80;;
76765;SDS011;65707;52.362;6.588;2023-06-26T05:45:27;13.77;;;4.97;;
76765;SDS011;65707;52.362;6.588;2023-06-26T05:47:56;14.30;;;4.95;;
76765;SDS011;65707;52.362;6.588;2023-06-26T05:50:25;12.73;;;5.00;;
76765;SDS011;65707;52.362;6.588;2023-06-26T05:52:53;10.60;;;4.75;;
76765;SDS011;65707;52.362;6.588;2023-06-26T05:55:21;11.50;;;4.47;;
76765;SDS011;65707;52.362;6.588;2023-06-26T05:57:49;12.55;;;4.97;;
76765;SDS011;65707;52.362;6.588;2023-06-26T06:02:46;16.52;;;5.32;;
76765;SDS011;65707;52.362;6.588;2023-06-26T06:05:13;10.32;;;4.03;;
76765;SDS011;65707;52.362;6.588;2023-06-26T06:07:39;14.48;;;4.82;;
76765;SDS011;65707;52.362;6.588;2023-06-26T06:10:09;14.57;;;4.68;;
76765;SDS011;65707;52.362;6.588;2023-06-26T06:12:36;16.30;;;5.65;;
76765;SDS011;65707;52.362;6.588;2023-06-26T06:15:05;15.73;;;5.57;;
76765;SDS011;65707;52.362;6.588;2023-06-26T06:17:32;15.65;;;4.75;;
76765;SDS011;65707;52.362;6.588;2023-06-26T06:19:59;12.60;;;4.53;;
76765;SDS011;65707;52.362;6.588;2023-06-26T06:22:31;15.82;;;5.00;;
76765;SDS011;65707;52.362;6.588;2023-06-26T06:24:58;13.23;;;4.43;;
76765;SDS011;65707;52.362;6.588;2023-06-26T06:27:25;14.68;;;4.38;;
76765;SDS011;65707;52.362;6.588;2023-06-26T06:29:55;13.65;;;4.50;;
76765;SDS011;65707;52.362;6.588;2023-06-26T06:32:25;11.35;;;4.05;;
76765;SDS011;65707;52.362;6.588;2023-06-26T06:34:54;11.75;;;3.85;;
76765;SDS011;65707;52.362;6.588;2023-06-26T06:37:20;12.57;;;4.40;;
76765;SDS011;65707;52.362;6.588;2023-06-26T06:39:51;12.23;;;4.30;;
76765;SDS011;65707;52.362;6.588;2023-06-26T06:42:18;10.15;;;4.18;;
76765;SDS011;65707;52.362;6.588;2023-06-26T06:44:47;9.52;;;3.55;;
76765;SDS011;65707;52.362;6.588;2023-06-26T06:47:14;10.80;;;3.83;;
76765;SDS011;65707;52.362;6.588;2023-06-26T06:49:42;11.07;;;3.70;;
76765;SDS011;65707;52.362;6.588;2023-06-26T06:52:09;10.38;;;3.70;;
76765;SDS011;65707;52.362;6.588;2023-06-26T06:54:50;9.75;;;3.55;;
76765;SDS011;65707;52.362;6.588;2023-06-26T06:57:19;8.43;;;3.30;;
76765;SDS011;65707;52.362;6.588;2023-06-26T06:59:46;9.70;;;2.92;;
76765;SDS011;65707;52.362;6.588;2023-06-26T07:02:14;8.05;;;3.05;;
76765;SDS011;65707;52.362;6.588;2023-06-26T07:04:45;11.35;;;2.78;;
76765;SDS011;65707;52.362;6.588;2023-06-26T07:07:18;8.88;;;2.80;;
76765;SDS011;65707;52.362;6.588;2023-06-26T07:09:45;8.85;;;2.80;;
76765;SDS011;65707;52.362;6.588;2023-06-26T07:12:12;7.63;;;2.03;;
76765;SDS011;65707;52.362;6.588;2023-06-26T07:14:38;7.07;;;1.80;;
76765;SDS011;65707;52.362;6.588;2023-06-26T07:17:11;7.32;;;2.03;;
76765;SDS011;65707;52.362;6.588;2023-06-26T07:19:38;6.95;;;1.90;;
76765;SDS011;65707;52.362;6.588;2023-06-26T07:22:06;7.65;;;2.03;;
76765;SDS011;65707;52.362;6.588;2023-06-26T07:24:35;6.03;;;1.83;;
76765;SDS011;65707;52.362;6.588;2023-06-26T07:27:08;10.23;;;2.30;;
76765;SDS011;65707;52.362;6.588;2023-06-26T07:29:37;6.97;;;2.08;;
76765;SDS011;65707;52.362;6.588;2023-06-26T07:34:33;6.35;;;2.13;;
76765;SDS011;65707;52.362;6.588;2023-06-26T07:37:00;7.30;;;1.88;;
76765;SDS011;65707;52.362;6.588;2023-06-26T07:39:30;9.13;;;2.55;;
76765;SDS011;65707;52.362;6.588;2023-06-26T07:42:06;6.40;;;1.70;;
76765;SDS011;65707;52.362;6.588;2023-06-26T07:44:33;8.95;;;2.20;;
76765;SDS011;65707;52.362;6.588;2023-06-26T07:46:59;7.22;;;1.85;;
76765;SDS011;65707;52.362;6.588;2023-06-26T07:49:26;11.15;;;2.20;;
76765;SDS011;65707;52.362;6.588;2023-06-26T07:51:53;6.88;;;1.90;;
76765;SDS011;65707;52.362;6.588;2023-06-26T07:54:20;8.48;;;2.40;;
76765;SDS011;65707;52.362;6.588;2023-06-26T07:56:54;6.38;;;1.60;;
76765;SDS011;65707;52.362;6.588;2023-06-26T07:59:22;7.03;;;1.90;;
76765;SDS011;65707;52.362;6.588;2023-06-26T08:01:51;7.00;;;2.22;;
76765;SDS011;65707;52.362;6.588;2023-06-26T08:04:21;7.82;;;1.85;;
76765;SDS011;65707;52.362;6.588;2023-06-26T08:06:51;5.93;;;1.70;;
76765;SDS011;65707;52.362;6.588;2023-06-26T08:09:23;7.07;;;1.98;;
76765;SDS011;65707;52.362;6.588;2023-06-26T08:11:51;6.28;;;2.00;;
76765;SDS011;65707;52.362;6.588;2023-06-26T08:14:20;6.45;;;2.00;;
76765;SDS011;65707;52.362;6.588;2023-06-26T08:16:47;8.45;;;2.30;;
76765;SDS011;65707;52.362;6.588;2023-06-26T08:19:17;7.93;;;1.90;;
76765;SDS011;65707;52.362;6.588;2023-06-26T08:21:44;8.77;;;2.22;;
76765;SDS011;65707;52.362;6.588;2023-06-26T08:24:15;6.30;;;1.77;;
76765;SDS011;65707;52.362;6.588;2023-06-26T08:26:45;7.97;;;2.20;;
76765;SDS011;65707;52.362;6.588;2023-06-26T08:29:14;8.70;;;2.58;;
76765;SDS011;65707;52.362;6.588;2023-06-26T08:31:41;6.85;;;2.40;;
76765;SDS011;65707;52.362;6.588;2023-06-26T08:34:09;6.53;;;2.13;;
76765;SDS011;65707;52.362;6.588;2023-06-26T08:36:37;6.25;;;2.00;;
76765;SDS011;65707;52.362;6.588;2023-06-26T08:39:04;8.93;;;2.20;;
76765;SDS011;65707;52.362;6.588;2023-06-26T08:41:33;6.97;;;2.22;;
76765;SDS011;65707;52.362;6.588;2023-06-26T08:44:03;7.68;;;2.55;;
76765;SDS011;65707;52.362;6.588;2023-06-26T08:46:32;7.00;;;2.25;;
76765;SDS011;65707;52.362;6.588;2023-06-26T08:49:01;8.82;;;2.42;;
76765;SDS011;65707;52.362;6.588;2023-06-26T08:51:40;7.47;;;2.40;;
76765;SDS011;65707;52.362;6.588;2023-06-26T08:54:22;9.60;;;2.58;;
76765;SDS011;65707;52.362;6.588;2023-06-26T08:57:03;7.72;;;2.33;;
76765;SDS011;65707;52.362;6.588;2023-06-26T08:59:34;8.50;;;2.10;;
76765;SDS011;65707;52.362;6.588;2023-06-26T09:02:05;8.20;;;2.50;;
76765;SDS011;65707;52.362;6.588;2023-06-26T09:04:32;7.68;;;2.50;;
76765;SDS011;65707;52.362;6.588;2023-06-26T09:07:01;8.35;;;1.90;;
76765;SDS011;65707;52.362;6.588;2023-06-26T09:09:28;7.45;;;2.28;;
76765;SDS011;65707;52.362;6.588;2023-06-26T09:11:57;6.82;;;2.33;;
76765;SDS011;65707;52.362;6.588;2023-06-26T09:14:28;7.75;;;2.30;;
76765;SDS011;65707;52.362;6.588;2023-06-26T09:16:56;6.78;;;1.98;;
76765;SDS011;65707;52.362;6.588;2023-06-26T09:19:28;7.97;;;2.22;;
76765;SDS011;65707;52.362;6.588;2023-06-26T09:21:55;6.55;;;2.40;;
76765;SDS011;65707;52.362;6.588;2023-06-26T09:24:22;6.55;;;2.10;;
76765;SDS011;65707;52.362;6.588;2023-06-26T09:26:49;7.53;;;2.35;;
76765;SDS011;65707;52.362;6.588;2023-06-26T09:29:19;5.97;;;2.10;;
76765;SDS011;65707;52.362;6.588;2023-06-26T09:31:49;9.60;;;2.03;;
76765;SDS011;65707;52.362;6.588;2023-06-26T09:34:18;8.73;;;2.42;;
76765;SDS011;65707;52.362;6.588;2023-06-26T09:36:47;6.63;;;2.40;;
76765;SDS011;65707;52.362;6.588;2023-06-26T09:39:17;6.40;;;2.25;;
76765;SDS011;65707;52.362;6.588;2023-06-26T09:41:49;6.60;;;2.30;;
76765;SDS011;65707;52.362;6.588;2023-06-26T09:44:19;8.45;;;2.42;;
76765;SDS011;65707;52.362;6.588;2023-06-26T09:46:46;7.82;;;2.25;;
76765;SDS011;65707;52.362;6.588;2023-06-26T09:49:15;6.28;;;2.25;;
76765;SDS011;65707;52.362;6.588;2023-06-26T09:51:42;8.32;;;3.20;;
76765;SDS011;65707;52.362;6.588;2023-06-26T09:54:12;9.02;;;3.03;;
76765;SDS011;65707;52.362;6.588;2023-06-26T09:56:43;8.35;;;2.75;;
76765;SDS011;65707;52.362;6.588;2023-06-26T09:59:12;9.85;;;2.55;;
76765;SDS011;65707;52.362;6.588;2023-06-26T10:01:43;7.30;;;2.78;;
76765;SDS011;65707;52.362;6.588;2023-06-26T10:04:12;8.60;;;2.92;;
76765;SDS011;65707;52.362;6.588;2023-06-26T10:06:41;7.82;;;2.38;;
76765;SDS011;65707;52.362;6.588;2023-06-26T10:09:14;7.32;;;2.63;;
76765;SDS011;65707;52.362;6.588;2023-06-26T10:11:50;9.00;;;2.55;;
76765;SDS011;65707;52.362;6.588;2023-06-26T10:14:23;8.45;;;2.13;;
76765;SDS011;65707;52.362;6.588;2023-06-26T10:16:54;6.53;;;2.00;;
76765;SDS011;65707;52.362;6.588;2023-06-26T10:19:25;6.32;;;2.50;;
76765;SDS011;65707;52.362;6.588;2023-06-26T10:21:54;11.35;;;2.90;;
76765;SDS011;65707;52.362;6.588;2023-06-26T10:24:24;7.80;;;2.67;;
76765;SDS011;65707;52.362;6.588;2023-06-26T10:26:56;9.50;;;1.95;;
76765;SDS011;65707;52.362;6.588;2023-06-26T10:29:28;6.88;;;1.90;;
76765;SDS011;65707;52.362;6.588;2023-06-26T10:31:58;7.88;;;2.40;;
76765;SDS011;65707;52.362;6.588;2023-06-26T10:34:28;6.78;;;2.08;;
76765;SDS011;65707;52.362;6.588;2023-06-26T10:36:58;5.90;;;2.10;;
76765;SDS011;65707;52.362;6.588;2023-06-26T10:39:27;7.10;;;2.03;;
76765;SDS011;65707;52.362;6.588;2023-06-26T10:42:14;10.88;;;2.15;;
76765;SDS011;65707;52.362;6.588;2023-06-26T10:44:42;6.93;;;2.03;;
76765;SDS011;65707;52.362;6.588;2023-06-26T10:47:12;8.57;;;2.28;;
76765;SDS011;65707;52.362;6.588;2023-06-26T10:49:57;7.97;;;2.05;;
76765;SDS011;65707;52.362;6.588;2023-06-26T10:52:43;6.15;;;2.17;;
76765;SDS011;65707;52.362;6.588;2023-06-26T10:55:11;7.70;;;2.00;;
76765;SDS011;65707;52.362;6.588;2023-06-26T10:57:44;8.35;;;2.15;;
76765;SDS011;65707;52.362;6.588;2023-06-26T11:00:14;7.53;;;2.50;;
76765;SDS011;65707;52.362;6.588;2023-06-26T11:02:47;7.28;;;2.28;;
76765;SDS011;65707;52.362;6.588;2023-06-26T11:05:23;8.93;;;2.10;;
76765;SDS011;65707;52.362;6.588;2023-06-26T11:10:52;7.43;;;2.10;;
76765;SDS011;65707;52.362;6.588;2023-06-26T11:13:20;6.55;;;1.73;;
76765;SDS011;65707;52.362;6.588;2023-06-26T11:15:48;7.32;;;2.00;;
76765;SDS011;65707;52.362;6.588;2023-06-26T11:18:16;6.95;;;1.73;;
76765;SDS011;65707;52.362;6.588;2023-06-26T11:20:43;5.90;;;1.60;;
76765;SDS011;65707;52.362;6.588;2023-06-26T11:23:10;8.63;;;2.00;;
76765;SDS011;65707;52.362;6.588;2023-06-26T11:25:38;7.45;;;1.75;;
76765;SDS011;65707;52.362;6.588;2023-06-26T11:28:09;8.80;;;1.80;;
76765;SDS011;65707;52.362;6.588;2023-06-26T11:30:36;6.57;;;1.50;;
76765;SDS011;65707;52.362;6.588;2023-06-26T11:33:04;5.82;;;1.40;;
76765;SDS011;65707;52.362;6.588;2023-06-26T11:35:32;8.65;;;2.15;;
76765;SDS011;65707;52.362;6.588;2023-06-26T11:38:00;5.85;;;1.40;;
76765;SDS011;65707;52.362;6.588;2023-06-26T11:40:30;6.30;;;1.90;;
76765;SDS011;65707;52.362;6.588;2023-06-26T11:42:58;8.05;;;1.85;;
76765;SDS011;65707;52.362;6.588;2023-06-26T11:45:29;6.80;;;1.73;;
76765;SDS011;65707;52.362;6.588;2023-06-26T11:47:57;6.38;;;1.45;;
76765;SDS011;65707;52.362;6.588;2023-06-26T11:50:25;8.75;;;1.70;;
76765;SDS011;65707;52.362;6.588;2023-06-26T11:52:53;6.82;;;1.80;;
76765;SDS011;65707;52.362;6.588;2023-06-26T11:55:21;5.18;;;1.55;;
76765;SDS011;65707;52.362;6.588;2023-06-26T11:57:48;6.50;;;1.70;;
76765;SDS011;65707;52.362;6.588;2023-06-26T12:00:16;7.10;;;1.45;;
76765;SDS011;65707;52.362;6.588;2023-06-26T12:02:45;7.13;;;1.60;;
76765;SDS011;65707;52.362;6.588;2023-06-26T12:05:12;4.88;;;1.23;;
76765;SDS011;65707;52.362;6.588;2023-06-26T12:07:40;6.35;;;1.58;;
76765;SDS011;65707;52.362;6.588;2023-06-26T12:10:09;6.05;;;1.48;;
76765;SDS011;65707;52.362;6.588;2023-06-26T12:12:38;6.72;;;1.60;;
76765;SDS011;65707;52.362;6.588;2023-06-26T12:15:06;6.68;;;1.45;;
76765;SDS011;65707;52.362;6.588;2023-06-26T12:17:37;5.68;;;1.15;;
76765;SDS011;65707;52.362;6.588;2023-06-26T12:20:16;5.35;;;1.33;;
76765;SDS011;65707;52.362;6.588;2023-06-26T12:22:45;5.40;;;1.20;;
76765;SDS011;65707;52.362;6.588;2023-06-26T12:25:12;5.40;;;1.30;;
76765;SDS011;65707;52.362;6.588;2023-06-26T12:27:39;4.95;;;1.23;;
76765;SDS011;65707;52.362;6.588;2023-06-26T12:30:07;7.38;;;1.15;;
76765;SDS011;65707;52.362;6.588;2023-06-26T12:32:34;5.05;;;1.25;;
76765;SDS011;65707;52.362;6.588;2023-06-26T12:35:03;6.47;;;1.30;;
76765;SDS011;65707;52.362;6.588;2023-06-26T12:37:34;7.03;;;1.52;;
76765;SDS011;65707;52.362;6.588;2023-06-26T12:40:09;5.63;;;1.40;;
76765;SDS011;65707;52.362;6.588;2023-06-26T12:42:43;6.78;;;1.38;;
76765;SDS011;65707;52.362;6.588;2023-06-26T12:45:11;4.80;;;1.27;;
76765;SDS011;65707;52.362;6.588;2023-06-26T12:47:40;8.20;;;1.35;;
76765;SDS011;65707;52.362;6.588;2023-06-26T12:50:07;7.32;;;1.60;;
76765;SDS011;65707;52.362;6.588;2023-06-26T12:52:36;6.28;;;1.42;;
76765;SDS011;65707;52.362;6.588;2023-06-26T12:55:03;6.72;;;1.42;;
76765;SDS011;65707;52.362;6.588;2023-06-26T12:57:32;7.75;;;1.85;;
76765;SDS011;65707;52.362;6.588;2023-06-26T12:59:59;10.13;;;1.70;;
76765;SDS011;65707;52.362;6.588;2023-06-26T13:02:26;6.63;;;1.45;;
76765;SDS011;65707;52.362;6.588;2023-06-26T13:04:53;5.85;;;1.20;;
76765;SDS011;65707;52.362;6.588;2023-06-26T13:07:19;6.97;;;1.23;;
76765;SDS011;65707;52.362;6.588;2023-06-26T13:09:47;6.00;;;1.45;;
76765;SDS011;65707;52.362;6.588;2023-06-26T13:12:14;4.75;;;1.02;;
76765;SDS011;65707;52.362;6.588;2023-06-26T13:14:41;7.03;;;1.25;;
76765;SDS011;65707;52.362;6.588;2023-06-26T13:17:08;6.97;;;1.20;;
76765;SDS011;65707;52.362;6.588;2023-06-26T13:19:37;5.18;;;1.20;;
76765;SDS011;65707;52.362;6.588;2023-06-26T13:22:04;5.53;;;1.30;;
76765;SDS011;65707;52.362;6.588;2023-06-26T13:24:33;5.78;;;1.30;;
76765;SDS011;65707;52.362;6.588;2023-06-26T13:27:02;8.63;;;1.30;;
76765;SDS011;65707;52.362;6.588;2023-06-26T13:29:31;6.05;;;1.27;;
76765;SDS011;65707;52.362;6.588;2023-06-26T13:34:24;5.30;;;1.10;;
76765;SDS011;65707;52.362;6.588;2023-06-26T13:36:55;5.75;;;1.20;;
76765;SDS011;65707;52.362;6.588;2023-06-26T13:39:24;8.43;;;1.30;;
76765;SDS011;65707;52.362;6.588;2023-06-26T13:41:53;4.22;;;1.15;;
76765;SDS011;65707;52.362;6.588;2023-06-26T13:44:24;4.72;;;1.02;;
76765;SDS011;65707;52.362;6.588;2023-06-26T13:46:51;5.90;;;1.20;;
76765;SDS011;65707;52.362;6.588;2023-06-26T13:49:21;5.97;;;1.33;;
76765;SDS011;65707;52.362;6.588;2023-06-26T13:51:48;5.97;;;1.40;;
76765;SDS011;65707;52.362;6.588;2023-06-26T13:54:15;7.80;;;1.20;;
76765;SDS011;65707;52.362;6.588;2023-06-26T13:56:43;8.07;;;1.27;;
76765;SDS011;65707;52.362;6.588;2023-06-26T13:59:13;6.03;;;1.00;;
76765;SDS011;65707;52.362;6.588;2023-06-26T14:01:41;6.45;;;1.08;;
76765;SDS011;65707;52.362;6.588;2023-06-26T14:04:12;6.25;;;1.20;;
76765;SDS011;65707;52.362;6.588;2023-06-26T14:06:38;4.95;;;1.13;;
76765;SDS011;65707;52.362;6.588;2023-06-26T14:09:05;5.45;;;1.00;;
76765;SDS011;65707;52.362;6.588;2023-06-26T14:11:33;5.28;;;1.10;;
76765;SDS011;65707;52.362;6.588;2023-06-26T14:14:00;6.72;;;1.25;;
76765;SDS011;65707;52.362;6.588;2023-06-26T14:16:32;7.05;;;1.17;;
76765;SDS011;65707;52.362;6.588;2023-06-26T14:19:03;4.45;;;1.00;;
76765;SDS011;65707;52.362;6.588;2023-06-26T14:21:32;4.78;;;1.00;;
76765;SDS011;65707;52.362;6.588;2023-06-26T14:23:59;7.70;;;1.25;;
76765;SDS011;65707;52.362;6.588;2023-06-26T14:26:27;5.70;;;1.20;;
76765;SDS011;65707;52.362;6.588;2023-06-26T14:28:55;5.70;;;1.50;;
76765;SDS011;65707;52.362;6.588;2023-06-26T14:31:23;4.88;;;0.95;;
76765;SDS011;65707;52.362;6.588;2023-06-26T14:33:53;5.93;;;1.10;;
76765;SDS011;65707;52.362;6.588;2023-06-26T14:36:25;3.97;;;1.00;;
76765;SDS011;65707;52.362;6.588;2023-06-26T14:38:52;5.75;;;1.40;;
76765;SDS011;65707;52.362;6.588;2023-06-26T14:41:19;5.90;;;1.23;;
76765;SDS011;65707;52.362;6.588;2023-06-26T14:43:46;7.47;;;1.27;;
76765;SDS011;65707;52.362;6.588;2023-06-26T14:46:13;6.30;;;1.30;;
76765;SDS011;65707;52.362;6.588;2023-06-26T14:48:46;6.03;;;1.25;;
76765;SDS011;65707;52.362;6.588;2023-06-26T14:51:16;4.68;;;1.13;;
76765;SDS011;65707;52.362;6.588;2023-06-26T14:53:44;5.50;;;1.17;;
76765;SDS011;65707;52.362;6.588;2023-06-26T14:56:12;5.32;;;1.17;;
76765;SDS011;65707;52.362;6.588;2023-06-26T14:58:44;5.13;;;1.35;;